createdAt,value
2022-08-22T00:06:46.204Z,33.7
2022-08-22T00:12:23.739Z,33.6
2022-08-22T00:18:28.171Z,33.6
2022-08-22T00:24:09.918Z,33.6
2022-08-22T00:29:55.980Z,33.6
2022-08-22T00:35:34.527Z,33.6
2022-08-22T00:41:18.225Z,33.6
2022-08-22T00:46:45.154Z,33.6
2022-08-22T00:52:15.862Z,33.6
2022-08-22T00:57:35.427Z,33.5
2022-08-22T01:03:41.750Z,33.5
2022-08-22T01:09:32.046Z,33.5
2022-08-22T01:15:08.466Z,33.5
2022-08-22T01:20:44.732Z,33.4
2022-08-22T01:26:15.704Z,33.4
2022-08-22T01:32:02.031Z,33.4
2022-08-22T01:37:44.588Z,33.4
2022-08-22T01:44:16.348Z,33.4
2022-08-22T01:50:10.073Z,33.4
2022-08-22T01:55:45.906Z,33.4
2022-08-22T02:01:08.705Z,33.4
2022-08-22T02:06:30.947Z,33.4
2022-08-22T02:12:02.827Z,33.3
2022-08-22T02:23:07.220Z,33.3
2022-08-22T02:28:57.824Z,33.3
2022-08-22T02:34:40.169Z,33.3
2022-08-22T02:40:21.018Z,33.3
2022-08-22T02:46:02.879Z,33.3
2022-08-22T02:57:11.419Z,33.2
2022-08-22T03:03:04.332Z,33.2
2022-08-22T03:14:12.847Z,33.1
2022-08-22T03:19:35.692Z,33.1
2022-08-22T03:25:12.636Z,33.1
2022-08-22T03:31:29.204Z,33.1
2022-08-22T03:36:50.659Z,33.1
2022-08-22T03:42:43.706Z,33.1
2022-08-22T03:48:04.932Z,33.1
2022-08-22T03:53:35.202Z,33.1
2022-08-22T03:59:34.721Z,33
2022-08-22T04:05:45.619Z,33
2022-08-22T04:11:52.659Z,33
2022-08-22T04:17:31.007Z,33
2022-08-22T04:23:09.579Z,32.9
2022-08-22T04:28:42.798Z,32.9
2022-08-22T04:34:09.668Z,32.9
2022-08-22T04:39:48.330Z,32.9
2022-08-22T04:45:54.567Z,32.9
2022-08-22T04:51:50.029Z,32.9
2022-08-22T04:57:33.062Z,32.9
2022-08-22T05:03:20.965Z,32.9
2022-08-22T05:09:17.364Z,32.9
2022-08-22T05:20:37.131Z,32.9
2022-08-22T05:26:27.330Z,32.8
2022-08-22T05:32:13.538Z,32.8
2022-08-22T05:37:59.025Z,32.8
2022-08-22T05:43:38.703Z,32.8
2022-08-22T05:49:16.631Z,32.8
2022-08-22T05:55:07.353Z,32.8
2022-08-22T06:00:47.537Z,32.8
2022-08-22T06:06:25.632Z,32.8
2022-08-22T06:12:08.590Z,32.7
2022-08-22T06:17:59.941Z,32.7
2022-08-22T06:23:57.907Z,32.7
2022-08-22T06:30:00.150Z,28.5
2022-08-22T06:41:27.059Z,34.9
2022-08-22T06:47:04.211Z,34.4
2022-08-22T06:52:47.346Z,43.3
2022-08-22T06:58:33.944Z,41.8
2022-08-22T07:04:32.310Z,40.9
2022-08-22T07:10:14.685Z,40.5
2022-08-22T07:15:56.244Z,40.4
2022-08-22T07:21:39.938Z,40.4
2022-08-22T07:27:16.849Z,40.5
2022-08-22T07:33:23.617Z,40.6
2022-08-22T07:39:05.025Z,41
2022-08-22T07:44:48.056Z,41.1
2022-08-22T07:51:13.953Z,41.6
2022-08-22T07:57:11.706Z,43.8
2022-08-22T08:02:53.270Z,44.9
2022-08-22T08:08:36.267Z,48.3
2022-08-22T08:14:23.922Z,49.8
2022-08-22T08:20:01.323Z,50.1
2022-08-22T08:25:53.373Z,51
2022-08-22T08:31:37.704Z,50.8
2022-08-22T08:38:01.975Z,52.6
2022-08-22T08:43:52.855Z,52.6
2022-08-22T08:49:44.215Z,49.9
2022-08-22T09:40:32.579Z,52.9
2022-08-22T09:46:21.165Z,54.9
2022-08-22T09:52:52.194Z,55.9
2022-08-22T09:58:46.932Z,56.8
2022-08-22T10:04:52.264Z,54.3
2022-08-22T10:11:02.667Z,54.9
2022-08-22T10:17:09.297Z,57.9
2022-08-22T10:22:46.696Z,56.7
2022-08-22T10:28:35.489Z,59.1
2022-08-22T10:34:29.011Z,60.4
2022-08-22T10:40:36.057Z,56.4
2022-08-22T10:46:45.699Z,58.3
2022-08-22T10:53:04.306Z,60.8
2022-08-22T10:59:00.646Z,61.2
2022-08-22T11:05:34.718Z,61.3
2022-08-22T11:11:34.916Z,62.1
2022-08-22T11:17:53.794Z,61.6
2022-08-22T11:24:02.527Z,63.1
2022-08-22T11:30:44.333Z,63.6
2022-08-22T11:37:03.113Z,61.3
2022-08-22T11:43:22.237Z,61.4
2022-08-22T11:49:25.495Z,62.6
2022-08-22T11:55:26.680Z,59.3
2022-08-22T12:01:22.567Z,57.7
2022-08-22T12:07:27.503Z,57
2022-08-22T12:13:20.030Z,56.4
2022-08-22T12:20:45.714Z,56.4
2022-08-22T12:27:13.616Z,56.8
2022-08-22T12:33:22.888Z,55.8
2022-08-22T12:39:50.381Z,57.4
2022-08-22T12:45:56.735Z,59.4
2022-08-22T12:51:50.538Z,59.9
2022-08-22T12:57:56.652Z,60.8
2022-08-22T13:03:59.306Z,61.4
2022-08-22T13:09:52.336Z,60.8
2022-08-22T13:16:17.325Z,58.6
2022-08-22T13:22:47.009Z,56.4
2022-08-22T13:29:42.616Z,55.3
2022-08-22T13:35:16.641Z,54.2
2022-08-22T13:41:15.905Z,53.4
2022-08-22T13:47:11.092Z,51.6
2022-08-22T13:53:49.431Z,48.6
2022-08-22T14:00:28.965Z,46.8
2022-08-22T14:07:10.175Z,45.5
2022-08-22T14:13:24.822Z,44.7
2022-08-22T14:19:23.269Z,44.1
2022-08-22T14:25:55.402Z,43.6
2022-08-22T14:31:55.542Z,43.3
2022-08-22T14:38:06.223Z,43
2022-08-22T14:44:30.447Z,42.8
2022-08-22T14:51:27.109Z,42.6
2022-08-22T14:57:10.075Z,42.4
2022-08-22T15:03:01.581Z,42.3
2022-08-22T15:09:07.684Z,42.2
2022-08-22T15:15:09.380Z,42.1
2022-08-22T15:21:25.881Z,42
2022-08-22T15:27:23.501Z,41.9
2022-08-22T15:33:32.360Z,41.9
2022-08-22T15:39:26.143Z,41.8
2022-08-22T15:45:38.809Z,41.8
2022-08-22T15:51:44.566Z,41.7
2022-08-22T15:58:07.434Z,41.6
2022-08-22T16:04:29.466Z,41.5
2022-08-22T16:10:15.327Z,41.4
2022-08-22T16:15:56.823Z,41.4
2022-08-22T16:21:43.452Z,41.3
2022-08-22T16:27:22.220Z,41.1
2022-08-22T16:33:39.546Z,41.1
2022-08-22T16:39:17.157Z,41
2022-08-22T16:44:45.229Z,41
2022-08-22T16:50:44.571Z,40.9
2022-08-22T16:56:21.006Z,40.8
2022-08-22T17:02:53.427Z,40.7
2022-08-22T17:08:33.302Z,40.8
2022-08-22T17:14:16.663Z,40.9
2022-08-22T17:20:06.896Z,40.8
2022-08-22T17:31:36.111Z,40.7
2022-08-22T17:37:16.518Z,40.7
2022-08-22T17:42:58.181Z,40.6
2022-08-22T17:49:00.567Z,40.6
2022-08-22T17:54:38.622Z,40.5
2022-08-22T18:00:57.710Z,40.1
2022-08-22T18:13:13.800Z,39.8
2022-08-22T18:18:37.955Z,39.5
2022-08-22T18:24:49.922Z,39.5
2022-08-22T18:30:40.496Z,39.6
2022-08-22T18:36:13.136Z,39.6
2022-08-22T18:42:16.639Z,39.6
2022-08-22T18:48:15.778Z,39.5
2022-08-22T18:54:30.496Z,39.5
2022-08-22T19:00:27.463Z,39.4
2022-08-22T19:06:09.277Z,39.4
2022-08-22T19:11:18.112Z,39.4
2022-08-22T19:16:58.377Z,39.3
2022-08-22T19:22:56.758Z,39.3
2022-08-22T19:28:37.310Z,39.2
2022-08-22T19:34:24.417Z,39.2
2022-08-22T19:40:11.029Z,39.1
2022-08-22T19:45:40.737Z,39.1
2022-08-22T19:51:22.400Z,39
2022-08-22T19:57:03.309Z,38.9
2022-08-22T20:02:54.012Z,38.9
2022-08-22T20:09:14.383Z,38.8
2022-08-22T20:14:47.047Z,38.8
2022-08-22T20:21:17.507Z,38.7
2022-08-22T20:27:28.810Z,38.7
2022-08-22T20:39:29.206Z,38.4
2022-08-22T20:51:22.807Z,38.3
2022-08-22T20:57:10.079Z,38.2
2022-08-22T21:02:53.731Z,38.1
2022-08-22T21:08:35.024Z,38.1
2022-08-22T21:14:17.449Z,38.1
2022-08-22T21:25:07.491Z,38.1
2022-08-22T21:30:31.811Z,38.1
2022-08-22T21:41:39.453Z,38
2022-08-22T21:47:19.170Z,37.9
2022-08-22T21:53:10.267Z,37.9
2022-08-22T21:59:11.184Z,37.9
2022-08-22T22:05:31.398Z,37.8
2022-08-22T22:11:17.745Z,37.8
2022-08-22T22:16:54.443Z,37.8
2022-08-22T22:22:31.664Z,37.7
2022-08-22T22:28:42.969Z,37.6
2022-08-22T22:34:19.972Z,37.6
2022-08-22T22:40:06.459Z,37.6
2022-08-22T22:45:52.122Z,37.6
2022-08-22T22:56:50.370Z,37.4
2022-08-22T23:03:05.689Z,37.4
2022-08-22T23:08:42.407Z,37.4
2022-08-22T23:14:40.187Z,37.3
2022-08-22T23:20:25.477Z,37.3
2022-08-22T23:26:03.360Z,37.3
2022-08-22T23:31:39.936Z,37.2
2022-08-22T23:37:22.852Z,37.2
2022-08-22T23:43:04.485Z,37.2
2022-08-22T23:48:28.395Z,37.1
2022-08-22T23:59:30.511Z,37.1
